Time;durP1;ratioP1;P1;durP2;ratioP2;P2;SDS_P1;SDS_P2;PMS_P1;PMS_P2;Temp;Humidity;BMP_temperature;BMP_pressure;BME280_temperature;BME280_humidity;BME280_pressure;Samples;Min_cycle;Max_cycle;Signal;HPM_P1;HPM_P2
2023/12/25 00:01:05;;;;;;;2.03;1.42;;;;;;;;;;5033455;28;20041;-74
2023/12/25 00:03:31;;;;;;;1.05;0.98;;;;;;;;;;5033627;28;20021;-74
2023/12/25 00:05:57;;;;;;;0.90;0.90;;;;;;;;;;5033315;28;20018;-74
2023/12/25 00:08:23;;;;;;;2.47;1.48;;;;;;;;;;5033261;28;20037;-74
2023/12/25 00:10:48;;;;;;;2.38;1.58;;;;;;;;;;5033242;28;20037;-74
2023/12/25 00:13:13;;;;;;;2.05;1.40;;;;;;;;;;5033660;28;20044;-72
2023/12/25 00:15:39;;;;;;;1.10;1.00;;;;;;;;;;5031912;28;20025;-72
2023/12/25 00:18:04;;;;;;;0.82;0.80;;;;;;;;;;5032184;28;20037;-71
2023/12/25 00:20:30;;;;;;;2.10;1.17;;;;;;;;;;5033194;28;20049;-71
2023/12/25 00:22:55;;;;;;;2.60;1.42;;;;;;;;;;5031998;28;20032;-71
2023/12/25 00:25:20;;;;;;;1.48;1.10;;;;;;;;;;5034441;28;20167;-71
2023/12/25 00:27:46;;;;;;;1.08;0.88;;;;;;;;;;5019794;28;20033;-71
2023/12/25 00:30:12;;;;;;;1.20;1.10;;;;;;;;;;5037109;28;20025;-71
2023/12/25 00:32:37;;;;;;;1.55;1.42;;;;;;;;;;5036164;28;20471;-71
2023/12/25 00:35:03;;;;;;;1.45;1.20;;;;;;;;;;5037017;28;20026;-74
2023/12/25 00:37:28;;;;;;;1.38;1.20;;;;;;;;;;5064446;22;20048;-74
2023/12/25 00:39:56;;;;;;;2.92;1.35;;;;;;;;;;5089587;22;20056;-75
2023/12/25 00:42:21;;;;;;;0.95;0.88;;;;;;;;;;5077131;28;20112;-72
2023/12/25 00:44:49;;;;;;;1.98;1.02;;;;;;;;;;5058424;28;20056;-72
2023/12/25 00:47:14;;;;;;;3.90;1.73;;;;;;;;;;5076792;28;20107;-72
2023/12/25 00:49:40;;;;;;;1.85;1.15;;;;;;;;;;5042087;28;20052;-72
2023/12/25 00:52:05;;;;;;;1.08;0.98;;;;;;;;;;5076831;28;20449;-72
2023/12/25 00:54:31;;;;;;;1.30;1.20;;;;;;;;;;5058950;28;20028;-72
2023/12/25 00:56:57;;;;;;;1.80;1.15;;;;;;;;;;5058497;28;20375;-72
2023/12/25 00:59:24;;;;;;;2.78;1.45;;;;;;;;;;5076371;28;20474;-76
2023/12/25 01:01:49;;;;;;;2.13;1.20;;;;;;;;;;5075184;28;20031;-73
2023/12/25 01:04:14;;;;;;;1.13;0.95;;;;;;;;;;5057999;28;20024;-72
2023/12/25 01:06:41;;;;;;;1.13;0.90;;;;;;;;;;5058038;28;20032;-66
2023/12/25 01:09:06;;;;;;;2.33;1.50;;;;;;;;;;5076819;28;20066;-66
2023/12/25 01:11:32;;;;;;;1.55;1.35;;;;;;;;;;5075894;28;20040;-71
2023/12/25 01:13:58;;;;;;;1.30;1.02;;;;;;;;;;5058225;28;20032;-71
2023/12/25 01:16:24;;;;;;;1.95;1.42;;;;;;;;;;5074793;28;20039;-72
2023/12/25 01:18:50;;;;;;;1.63;1.20;;;;;;;;;;5075858;28;20414;-72
2023/12/25 01:21:15;;;;;;;1.02;0.82;;;;;;;;;;5075956;28;20040;-71
2023/12/25 01:23:42;;;;;;;1.67;0.85;;;;;;;;;;5076130;28;20382;-72
2023/12/25 01:26:07;;;;;;;1.27;1.17;;;;;;;;;;5074493;28;20021;-71
2023/12/25 01:28:33;;;;;;;1.38;1.27;;;;;;;;;;5076116;28;20441;-72
2023/12/25 01:30:58;;;;;;;1.55;1.17;;;;;;;;;;5075414;28;20475;-71
2023/12/25 01:33:23;;;;;;;2.85;1.00;;;;;;;;;;5057162;28;20032;-72
2023/12/25 01:35:49;;;;;;;0.77;0.75;;;;;;;;;;5074154;28;20033;-71
2023/12/25 01:38:16;;;;;;;0.80;0.80;;;;;;;;;;5076084;28;20121;-71
2023/12/25 01:40:44;;;;;;;2.13;0.90;;;;;;;;;;5075493;28;20490;-70
2023/12/25 01:43:09;;;;;;;1.17;1.08;;;;;;;;;;5075666;28;20032;-70
2023/12/25 01:45:35;;;;;;;1.17;1.02;;;;;;;;;;5057944;28;20021;-70
2023/12/25 01:48:00;;;;;;;0.85;0.63;;;;;;;;;;5057798;28;20032;-70
2023/12/25 01:50:28;;;;;;;1.02;0.82;;;;;;;;;;5057967;28;20051;-70
2023/12/25 01:52:53;;;;;;;1.30;1.20;;;;;;;;;;5057622;28;20390;-71
2023/12/25 01:55:18;;;;;;;0.60;0.60;;;;;;;;;;5075496;28;20039;-70
2023/12/25 01:57:44;;;;;;;0.82;0.80;;;;;;;;;;5057678;28;20024;-70
2023/12/25 02:00:10;;;;;;;0.55;0.55;;;;;;;;;;5041052;28;20064;-70
2023/12/25 02:02:41;;;;;;;;;;;;;;;;;;5041792;28;20106;-70
2023/12/25 02:05:08;;;;;;;1.30;0.90;;;;;;;;;;5075362;28;19934;-70
2023/12/25 02:07:35;;;;;;;1.45;0.80;;;;;;;;;;5057409;28;20020;-70
2023/12/25 02:10:00;;;;;;;0.75;0.70;;;;;;;;;;5057391;28;20071;-70
2023/12/25 02:12:26;;;;;;;0.98;0.90;;;;;;;;;;5056848;28;20059;-70
2023/12/25 02:14:51;;;;;;;0.77;0.65;;;;;;;;;;5075357;28;20016;-71
2023/12/25 02:17:17;;;;;;;1.02;0.70;;;;;;;;;;5075079;28;20086;-71
2023/12/25 02:19:43;;;;;;;0.82;0.82;;;;;;;;;;5057118;28;20025;-71
2023/12/25 02:22:10;;;;;;;1.40;0.90;;;;;;;;;;5057397;28;20029;-72
2023/12/25 02:24:36;;;;;;;1.00;0.70;;;;;;;;;;5075114;28;20078;-69
2023/12/25 02:27:04;;;;;;;0.60;0.60;;;;;;;;;;5057276;28;20032;-69
2023/12/25 02:29:30;;;;;;;0.77;0.77;;;;;;;;;;5075132;28;20123;-70
2023/12/25 02:31:55;;;;;;;0.85;0.85;;;;;;;;;;5074717;28;20446;-70
2023/12/25 02:34:22;;;;;;;1.55;0.50;;;;;;;;;;5056707;28;20032;-70
2023/12/25 02:36:47;;;;;;;1.05;0.85;;;;;;;;;;5040492;28;20050;-70
2023/12/25 02:39:13;;;;;;;0.45;0.45;;;;;;;;;;5056645;28;20036;-72
2023/12/25 02:41:38;;;;;;;0.75;0.70;;;;;;;;;;5073831;28;20054;-73
2023/12/25 02:44:05;;;;;;;0.80;0.80;;;;;;;;;;5074411;28;20074;-73
2023/12/25 02:46:30;;;;;;;0.73;0.73;;;;;;;;;;5057011;28;20033;-73
2023/12/25 02:48:56;;;;;;;0.88;0.55;;;;;;;;;;5073724;28;20035;-73
2023/12/25 02:51:21;;;;;;;0.70;0.70;;;;;;;;;;5074413;28;20067;-73
2023/12/25 02:53:50;;;;;;;0.85;0.60;;;;;;;;;;5087539;22;20060;-73
2023/12/25 02:56:15;;;;;;;0.65;0.65;;;;;;;;;;5073948;28;20031;-73
2023/12/25 02:58:41;;;;;;;0.50;0.50;;;;;;;;;;5074337;28;20032;-73
2023/12/25 03:01:06;;;;;;;0.60;0.50;;;;;;;;;;5074326;28;20072;-73
2023/12/25 03:03:34;;;;;;;0.60;0.60;;;;;;;;;;5073987;28;20020;-73
2023/12/25 03:05:59;;;;;;;0.68;0.68;;;;;;;;;;5071613;23;20052;-74
2023/12/25 03:08:24;;;;;;;0.75;0.57;;;;;;;;;;5073729;28;20108;-74
2023/12/25 03:10:50;;;;;;;0.80;0.60;;;;;;;;;;5073734;28;20036;-74
2023/12/25 03:13:15;;;;;;;0.77;0.60;;;;;;;;;;5074359;28;20036;-74
2023/12/25 03:15:42;;;;;;;0.47;0.47;;;;;;;;;;5055775;28;20028;-77
2023/12/25 03:18:07;;;;;;;0.47;0.40;;;;;;;;;;5074544;28;20039;-77
2023/12/25 03:20:33;;;;;;;0.52;0.40;;;;;;;;;;5074345;28;20046;-77
2023/12/25 03:23:07;;;;;;;0.55;0.55;;;;;;;;;;5062680;22;20020;-76
2023/12/25 03:25:33;;;;;;;0.60;0.60;;;;;;;;;;4992484;28;20046;-77
2023/12/25 03:27:59;;;;;;;0.50;0.50;;;;;;;;;;4994966;28;20491;-77
2023/12/25 03:30:24;;;;;;;0.57;0.50;;;;;;;;;;4993133;28;20038;-74
2023/12/25 03:32:50;;;;;;;0.98;0.50;;;;;;;;;;4994940;28;20094;-74
2023/12/25 03:35:15;;;;;;;0.47;0.40;;;;;;;;;;4994254;28;20030;-75
2023/12/25 03:37:41;;;;;;;0.38;0.38;;;;;;;;;;4992364;28;20041;-75
2023/12/25 03:40:08;;;;;;;0.52;0.52;;;;;;;;;;4992874;28;20092;-74
2023/12/25 03:42:33;;;;;;;0.50;0.50;;;;;;;;;;4992747;28;20113;-73
2023/12/25 03:44:59;;;;;;;0.50;0.50;;;;;;;;;;4991797;28;20030;-73
2023/12/25 03:47:24;;;;;;;0.50;0.50;;;;;;;;;;4993300;28;20034;-73
2023/12/25 03:49:50;;;;;;;0.77;0.57;;;;;;;;;;4992642;28;20085;-73
2023/12/25 03:52:15;;;;;;;0.52;0.50;;;;;;;;;;4993927;28;20037;-74
2023/12/25 03:54:40;;;;;;;0.57;0.50;;;;;;;;;;4994405;28;20031;-74
2023/12/25 03:57:10;;;;;;;0.40;0.40;;;;;;;;;;4994331;28;20023;-73
2023/12/25 03:59:38;;;;;;;0.50;0.50;;;;;;;;;;4994686;28;20114;-74
2023/12/25 04:02:03;;;;;;;0.65;0.55;;;;;;;;;;4998087;28;20770;-74
2023/12/25 04:04:28;;;;;;;0.68;0.55;;;;;;;;;;4997981;28;20026;-74
2023/12/25 04:06:54;;;;;;;0.30;0.30;;;;;;;;;;4996946;28;20041;-73
2023/12/25 04:09:19;;;;;;;1.52;0.60;;;;;;;;;;4996866;28;20026;-73
2023/12/25 04:11:45;;;;;;;0.40;0.40;;;;;;;;;;4996791;28;20042;-73
2023/12/25 04:14:10;;;;;;;1.42;0.20;;;;;;;;;;4996477;28;20138;-73
2023/12/25 04:16:36;;;;;;;0.65;0.65;;;;;;;;;;4996850;28;20026;-73
2023/12/25 04:19:01;;;;;;;1.30;0.50;;;;;;;;;;4980947;28;20117;-73
2023/12/25 04:21:28;;;;;;;0.55;0.55;;;;;;;;;;4996357;28;20056;-73
2023/12/25 04:23:54;;;;;;;1.17;0.60;;;;;;;;;;4980013;28;20050;-74
2023/12/25 04:26:20;;;;;;;0.45;0.45;;;;;;;;;;4996191;28;20469;-74
2023/12/25 04:28:45;;;;;;;0.52;0.52;;;;;;;;;;4997594;28;20034;-74
2023/12/25 04:31:11;;;;;;;0.50;0.50;;;;;;;;;;4996175;28;20065;-74
2023/12/25 04:33:37;;;;;;;0.25;0.25;;;;;;;;;;4997590;28;20168;-74
2023/12/25 04:36:03;;;;;;;0.50;0.50;;;;;;;;;;4997016;28;20064;-73
2023/12/25 04:38:28;;;;;;;0.50;0.50;;;;;;;;;;4964483;28;20034;-75
2023/12/25 04:40:54;;;;;;;0.32;0.32;;;;;;;;;;4979691;28;20030;-74
2023/12/25 04:43:53;;;;;;;0.60;0.32;;;;;;;;;;5051739;22;20073;-75
2023/12/25 04:46:19;;;;;;;2.10;0.50;;;;;;;;;;5038411;28;20025;-75
2023/12/25 04:48:45;;;;;;;0.30;0.30;;;;;;;;;;5038574;28;20496;-75
2023/12/25 04:51:11;;;;;;;0.50;0.50;;;;;;;;;;5038472;28;20033;-73
2023/12/25 04:53:36;;;;;;;0.55;0.55;;;;;;;;;;5038898;28;20194;-74
2023/12/25 04:56:02;;;;;;;0.80;0.57;;;;;;;;;;5056939;28;20414;-73
2023/12/25 04:58:27;;;;;;;0.63;0.50;;;;;;;;;;5038319;28;20040;-74
2023/12/25 05:00:53;;;;;;;0.70;0.60;;;;;;;;;;5038406;28;20396;-74
2023/12/25 05:03:19;;;;;;;0.38;0.38;;;;;;;;;;5038869;28;20037;-73
2023/12/25 05:05:44;;;;;;;0.82;0.70;;;;;;;;;;5056486;28;20493;-73
2023/12/25 05:08:09;;;;;;;0.40;0.40;;;;;;;;;;5038261;28;20107;-72
2023/12/25 05:10:35;;;;;;;1.10;0.88;;;;;;;;;;5037490;28;20120;-72
2023/12/25 05:13:27;;;;;;;0.63;0.63;;;;;;;;;;5049402;23;20056;-72
2023/12/25 05:15:59;;;;;;;0.93;0.75;;;;;;;;;;5012241;28;20054;-72
2023/12/25 05:18:24;;;;;;;0.52;0.45;;;;;;;;;;5014839;28;20030;-71
2023/12/25 05:20:58;;;;;;;0.77;0.68;;;;;;;;;;5014768;28;20021;-72
2023/12/25 05:23:23;;;;;;;0.70;0.70;;;;;;;;;;5016686;28;20522;-72
2023/12/25 05:25:49;;;;;;;1.65;1.00;;;;;;;;;;5031170;28;20022;-73
2023/12/25 05:28:14;;;;;;;1.10;0.65;;;;;;;;;;5016205;28;20066;-73
2023/12/25 05:30:40;;;;;;;1.27;0.82;;;;;;;;;;5015844;28;20040;-73
2023/12/25 05:33:05;;;;;;;1.40;1.30;;;;;;;;;;5016075;28;20037;-75
2023/12/25 05:35:34;;;;;;;1.00;0.73;;;;;;;;;;5016022;28;20037;-72
2023/12/25 05:38:00;;;;;;;0.73;0.73;;;;;;;;;;5016074;28;20048;-72
2023/12/25 05:40:25;;;;;;;0.82;0.60;;;;;;;;;;5014330;28;20500;-72
2023/12/25 05:42:51;;;;;;;0.60;0.60;;;;;;;;;;5016230;28;20479;-72
2023/12/25 05:45:17;;;;;;;2.20;0.85;;;;;;;;;;5015230;28;20041;-72
2023/12/25 05:47:42;;;;;;;0.70;0.70;;;;;;;;;;5015068;28;20049;-72
2023/12/25 05:50:08;;;;;;;0.90;0.65;;;;;;;;;;5015391;28;20672;-72
2023/12/25 05:52:34;;;;;;;1.35;1.00;;;;;;;;;;5015193;28;20365;-73
2023/12/25 05:55:00;;;;;;;2.13;0.88;;;;;;;;;;5015482;28;20168;-71
2023/12/25 05:57:25;;;;;;;1.48;0.80;;;;;;;;;;5015416;28;20038;-71
2023/12/25 05:59:51;;;;;;;1.00;0.90;;;;;;;;;;5015294;28;20041;-71
2023/12/25 06:02:16;;;;;;;1.40;0.90;;;;;;;;;;5015427;28;20025;-71
2023/12/25 06:04:42;;;;;;;0.70;0.70;;;;;;;;;;5015277;28;20112;-71
2023/12/25 06:07:07;;;;;;;0.55;0.55;;;;;;;;;;5015159;28;20056;-71
2023/12/25 06:09:32;;;;;;;0.60;0.60;;;;;;;;;;5015190;28;20026;-73
2023/12/25 06:11:58;;;;;;;1.20;0.70;;;;;;;;;;5013664;28;20034;-73
2023/12/25 06:14:23;;;;;;;0.60;0.60;;;;;;;;;;5013734;28;20068;-73
2023/12/25 06:16:49;;;;;;;0.75;0.73;;;;;;;;;;5014968;28;20072;-73
2023/12/25 06:19:14;;;;;;;0.70;0.70;;;;;;;;;;5014929;28;20092;-73
2023/12/25 06:21:39;;;;;;;0.80;0.80;;;;;;;;;;5014728;28;20026;-71
2023/12/25 06:24:05;;;;;;;1.42;0.80;;;;;;;;;;5013830;28;20461;-71
2023/12/25 06:26:30;;;;;;;0.50;0.43;;;;;;;;;;5014665;28;20091;-71
2023/12/25 06:28:56;;;;;;;0.82;0.80;;;;;;;;;;5014812;28;20022;-71
2023/12/25 06:31:21;;;;;;;0.90;0.60;;;;;;;;;;5014555;28;20037;-71
2023/12/25 06:33:46;;;;;;;1.23;0.60;;;;;;;;;;5014764;28;20056;-71
2023/12/25 06:36:12;;;;;;;0.50;0.50;;;;;;;;;;5014511;28;20022;-71
2023/12/25 06:38:38;;;;;;;0.50;0.50;;;;;;;;;;5014867;28;20468;-71
2023/12/25 06:41:03;;;;;;;0.47;0.47;;;;;;;;;;5029692;28;20037;-70
2023/12/25 06:43:29;;;;;;;1.50;0.65;;;;;;;;;;5013237;28;20022;-70
2023/12/25 06:45:54;;;;;;;1.85;0.70;;;;;;;;;;5014439;28;20010;-70
2023/12/25 06:48:20;;;;;;;1.20;0.82;;;;;;;;;;5014522;28;20113;-71
2023/12/25 06:50:45;;;;;;;0.73;0.68;;;;;;;;;;5014639;28;20025;-71
2023/12/25 06:53:10;;;;;;;0.52;0.50;;;;;;;;;;5014382;28;20033;-71
2023/12/25 06:55:36;;;;;;;0.73;0.73;;;;;;;;;;5012931;28;20033;-71
2023/12/25 06:58:02;;;;;;;1.00;0.80;;;;;;;;;;5014042;28;20030;-71
2023/12/25 07:00:28;;;;;;;0.73;0.70;;;;;;;;;;5013982;28;20088;-70
2023/12/25 07:02:54;;;;;;;0.77;0.77;;;;;;;;;;5012819;28;20038;-70
2023/12/25 07:05:19;;;;;;;0.73;0.73;;;;;;;;;;5014096;28;20034;-70
2023/12/25 07:07:45;;;;;;;0.60;0.60;;;;;;;;;;5014018;28;20037;-71
2023/12/25 07:10:10;;;;;;;1.13;0.82;;;;;;;;;;5014064;28;20022;-72
2023/12/25 07:12:36;;;;;;;1.10;1.00;;;;;;;;;;4996328;28;20033;-72
2023/12/25 07:15:01;;;;;;;1.00;0.98;;;;;;;;;;5014068;28;20042;-73
2023/12/25 07:17:27;;;;;;;0.73;0.73;;;;;;;;;;5014078;28;20022;-70
2023/12/25 07:19:52;;;;;;;1.30;0.90;;;;;;;;;;5012913;28;20121;-66
2023/12/25 07:22:18;;;;;;;0.77;0.77;;;;;;;;;;5013256;28;20038;-65
2023/12/25 07:24:43;;;;;;;1.00;1.00;;;;;;;;;;5013754;28;20030;-66
2023/12/25 07:27:08;;;;;;;0.77;0.77;;;;;;;;;;5013764;28;20022;-68
2023/12/25 07:29:34;;;;;;;0.85;0.80;;;;;;;;;;5013164;28;20026;-67
2023/12/25 07:31:59;;;;;;;0.57;0.57;;;;;;;;;;5013582;28;20081;-67
2023/12/25 07:34:25;;;;;;;0.90;0.68;;;;;;;;;;5013484;28;20026;-78
2023/12/25 07:36:50;;;;;;;0.80;0.80;;;;;;;;;;5013787;28;20042;-78
2023/12/25 07:39:16;;;;;;;0.77;0.77;;;;;;;;;;5014109;28;20036;-78
2023/12/25 07:41:45;;;;;;;1.00;0.90;;;;;;;;;;5013246;28;20085;-78
2023/12/25 07:44:14;;;;;;;1.25;0.82;;;;;;;;;;5013526;28;20034;-79
2023/12/25 07:46:40;;;;;;;0.75;0.60;;;;;;;;;;5013522;28;20420;-78
2023/12/25 07:49:06;;;;;;;0.98;0.68;;;;;;;;;;5029372;28;20030;-78
2023/12/25 07:51:31;;;;;;;0.93;0.65;;;;;;;;;;5029222;28;20165;-78
2023/12/25 07:53:56;;;;;;;0.75;0.75;;;;;;;;;;5013040;28;20053;-78
2023/12/25 07:56:22;;;;;;;1.20;0.80;;;;;;;;;;5013305;28;20034;-79
2023/12/25 07:58:53;;;;;;;1.05;0.60;;;;;;;;;;5013844;28;20033;-79
2023/12/25 08:01:20;;;;;;;0.95;0.68;;;;;;;;;;5013252;28;20033;-79
2023/12/25 08:03:46;;;;;;;0.70;0.70;;;;;;;;;;5013504;28;20075;-79
2023/12/25 08:06:11;;;;;;;0.60;0.60;;;;;;;;;;5012246;28;20519;-79
2023/12/25 08:08:37;;;;;;;0.65;0.65;;;;;;;;;;5026707;28;20022;-79
2023/12/25 08:11:03;;;;;;;0.65;0.43;;;;;;;;;;5027266;28;20396;-79
2023/12/25 08:13:30;;;;;;;0.68;0.68;;;;;;;;;;5013053;28;20033;-79
2023/12/25 08:15:56;;;;;;;0.47;0.47;;;;;;;;;;5028597;28;20037;-78
2023/12/25 08:18:21;;;;;;;1.27;0.85;;;;;;;;;;5013539;28;20040;-79
2023/12/25 08:20:47;;;;;;;0.85;0.80;;;;;;;;;;5013312;28;20525;-79
2023/12/25 08:23:12;;;;;;;1.20;0.80;;;;;;;;;;5013361;28;20455;-78
2023/12/25 08:25:38;;;;;;;0.77;0.63;;;;;;;;;;5028308;28;20030;-79
2023/12/25 08:28:03;;;;;;;0.65;0.50;;;;;;;;;;5012295;28;20075;-78
2023/12/25 08:30:29;;;;;;;1.33;0.52;;;;;;;;;;5013464;28;20473;-79
2023/12/25 08:32:54;;;;;;;0.52;0.52;;;;;;;;;;5013486;28;20037;-75
2023/12/25 08:35:20;;;;;;;0.52;0.50;;;;;;;;;;5013516;28;20091;-77
2023/12/25 08:37:46;;;;;;;0.60;0.60;;;;;;;;;;5012250;28;20030;-78
2023/12/25 08:40:11;;;;;;;0.82;0.40;;;;;;;;;;5012260;28;20052;-77
2023/12/25 08:42:36;;;;;;;0.47;0.47;;;;;;;;;;5013631;28;20030;-78
2023/12/25 08:45:04;;;;;;;1.02;0.73;;;;;;;;;;5013458;28;20030;-77
2023/12/25 08:47:29;;;;;;;1.85;0.82;;;;;;;;;;5015763;28;20026;-76
2023/12/25 08:49:55;;;;;;;0.80;0.80;;;;;;;;;;5016498;28;20034;-76
2023/12/25 08:52:21;;;;;;;1.02;0.90;;;;;;;;;;5016488;28;20088;-76
2023/12/25 08:54:47;;;;;;;0.70;0.70;;;;;;;;;;5016393;28;20691;-76
2023/12/25 08:57:12;;;;;;;0.60;0.60;;;;;;;;;;5016406;28;20037;-76
2023/12/25 08:59:37;;;;;;;2.05;1.05;;;;;;;;;;5031348;28;20503;-76
2023/12/25 09:02:03;;;;;;;0.52;0.43;;;;;;;;;;5016110;28;20022;-76
2023/12/25 09:04:28;;;;;;;1.30;1.20;;;;;;;;;;5016268;28;20105;-75
2023/12/25 09:06:54;;;;;;;2.92;1.55;;;;;;;;;;5015443;28;20030;-72
2023/12/25 09:09:19;;;;;;;1.40;1.30;;;;;;;;;;5016083;28;20028;-65
2023/12/25 09:11:46;;;;;;;1.42;1.33;;;;;;;;;;5016003;28;20371;-69
2023/12/25 09:14:12;;;;;;;1.80;1.15;;;;;;;;;;5015766;28;20081;-73
2023/12/25 09:16:37;;;;;;;1.42;1.13;;;;;;;;;;5015919;28;20064;-67
2023/12/25 09:19:03;;;;;;;1.05;0.95;;;;;;;;;;5015840;28;20037;-70
2023/12/25 09:21:28;;;;;;;1.67;1.30;;;;;;;;;;5015678;28;20042;-66
2023/12/25 09:23:54;;;;;;;2.45;1.00;;;;;;;;;;5015784;28;20018;-66
2023/12/25 09:26:20;;;;;;;2.15;1.13;;;;;;;;;;5016068;28;20415;-66
2023/12/25 09:28:45;;;;;;;0.80;0.80;;;;;;;;;;5014785;28;20376;-67
2023/12/25 09:31:11;;;;;;;1.20;1.02;;;;;;;;;;5016167;28;20030;-67
2023/12/25 09:33:37;;;;;;;1.38;0.80;;;;;;;;;;5016134;28;20030;-67
2023/12/25 09:36:02;;;;;;;1.55;0.93;;;;;;;;;;5016133;28;20045;-68
2023/12/25 09:38:28;;;;;;;1.25;1.15;;;;;;;;;;5014339;28;20431;-67
2023/12/25 09:40:54;;;;;;;1.33;1.23;;;;;;;;;;5015545;28;20021;-69
2023/12/25 09:43:20;;;;;;;1.08;0.90;;;;;;;;;;5015646;28;20101;-69
2023/12/25 09:45:46;;;;;;;1.20;0.90;;;;;;;;;;5015730;28;20048;-65
2023/12/25 09:48:11;;;;;;;0.85;0.82;;;;;;;;;;5015369;28;20022;-66
2023/12/25 09:50:38;;;;;;;0.60;0.60;;;;;;;;;;5015304;28;20058;-67
2023/12/25 09:53:03;;;;;;;1.85;1.60;;;;;;;;;;5015102;28;20029;-68
2023/12/25 09:55:29;;;;;;;1.92;1.60;;;;;;;;;;5013927;28;20038;-67
2023/12/25 09:57:55;;;;;;;1.25;1.15;;;;;;;;;;5014019;28;20076;-67
2023/12/25 10:00:20;;;;;;;1.73;1.48;;;;;;;;;;5012365;28;20057;-67
2023/12/25 10:02:49;;;;;;;2.00;1.30;;;;;;;;;;5013518;28;20026;-67
2023/12/25 10:05:15;;;;;;;1.23;1.10;;;;;;;;;;5029364;28;20067;-70
2023/12/25 10:07:41;;;;;;;1.92;1.20;;;;;;;;;;5013891;28;20060;-71
2023/12/25 10:10:08;;;;;;;1.50;1.33;;;;;;;;;;5012993;28;20025;-70
2023/12/25 10:12:33;;;;;;;1.42;1.33;;;;;;;;;;5009989;28;20109;-71
2023/12/25 10:14:59;;;;;;;1.73;1.42;;;;;;;;;;5011191;28;20176;-71
2023/12/25 10:17:24;;;;;;;1.55;1.38;;;;;;;;;;5011738;28;20053;-71
2023/12/25 10:19:50;;;;;;;1.83;1.50;;;;;;;;;;5010534;28;20092;-71
2023/12/25 10:22:28;;;;;;;0.85;0.85;;;;;;;;;;5011538;28;20033;-71
2023/12/25 10:24:54;;;;;;;2.38;1.85;;;;;;;;;;5012136;28;20034;-71
2023/12/25 10:27:21;;;;;;;0.60;0.60;;;;;;;;;;5012417;28;20049;-70
2023/12/25 10:29:47;;;;;;;2.10;1.88;;;;;;;;;;5012178;28;20045;-70
2023/12/25 10:32:16;;;;;;;3.38;2.47;;;;;;;;;;5013918;28;20030;-70
2023/12/25 10:34:41;;;;;;;0.80;0.70;;;;;;;;;;5013783;28;20041;-70
2023/12/25 10:37:07;;;;;;;3.20;2.90;;;;;;;;;;5013815;28;20022;-70
2023/12/25 10:39:33;;;;;;;1.13;1.13;;;;;;;;;;5013739;28;20030;-70
2023/12/25 10:41:59;;;;;;;1.10;0.88;;;;;;;;;;5012408;28;20033;-70
2023/12/25 10:44:24;;;;;;;2.15;1.67;;;;;;;;;;5012303;28;20030;-70
2023/12/25 10:46:50;;;;;;;0.88;0.60;;;;;;;;;;5013544;28;20076;-70
2023/12/25 10:49:15;;;;;;;2.05;1.55;;;;;;;;;;5013527;28;20491;-71
2023/12/25 10:51:43;;;;;;;1.63;1.52;;;;;;;;;;5013772;28;20068;-71
2023/12/25 10:54:10;;;;;;;0.95;0.90;;;;;;;;;;5013787;28;20088;-70
2023/12/25 10:56:36;;;;;;;1.00;0.98;;;;;;;;;;5013457;28;20476;-70
2023/12/25 10:59:04;;;;;;;1.35;1.25;;;;;;;;;;5012230;28;20432;-70
2023/12/25 11:01:30;;;;;;;3.70;1.55;;;;;;;;;;5028527;28;20065;-71
2023/12/25 11:03:56;;;;;;;0.95;0.85;;;;;;;;;;5012032;28;20061;-71
2023/12/25 11:06:22;;;;;;;1.90;1.60;;;;;;;;;;5013265;28;20034;-71
2023/12/25 11:08:48;;;;;;;1.80;0.90;;;;;;;;;;5012602;28;20018;-70
2023/12/25 11:11:14;;;;;;;1.95;1.35;;;;;;;;;;5013605;28;20380;-71
2023/12/25 11:13:40;;;;;;;1.65;1.45;;;;;;;;;;5013027;28;20033;-71
2023/12/25 11:16:06;;;;;;;1.80;1.52;;;;;;;;;;5013156;28;20470;-71
2023/12/25 11:18:36;;;;;;;2.20;1.23;;;;;;;;;;5013221;28;20088;-71
2023/12/25 11:21:03;;;;;;;2.17;1.80;;;;;;;;;;5013063;28;20030;-71
2023/12/25 11:23:33;;;;;;;2.10;1.92;;;;;;;;;;5028217;28;20026;-71
2023/12/25 11:25:59;;;;;;;2.10;1.65;;;;;;;;;;5013039;28;20510;-71
2023/12/25 11:28:25;;;;;;;2.22;1.75;;;;;;;;;;5013003;28;20026;-71
2023/12/25 11:30:50;;;;;;;0.98;0.93;;;;;;;;;;5013001;28;20025;-71
2023/12/25 11:33:18;;;;;;;1.85;1.27;;;;;;;;;;5013807;28;20036;-71
2023/12/25 11:35:44;;;;;;;2.85;2.13;;;;;;;;;;5014194;28;20117;-71
2023/12/25 11:38:25;;;;;;;2.38;1.58;;;;;;;;;;5014180;28;20089;-71
2023/12/25 11:40:51;;;;;;;2.80;2.00;;;;;;;;;;5014316;28;20038;-71
2023/12/25 11:43:20;;;;;;;1.90;1.25;;;;;;;;;;5014117;28;20101;-71
2023/12/25 11:45:46;;;;;;;1.23;1.13;;;;;;;;;;5014078;28;20041;-71
2023/12/25 11:48:12;;;;;;;1.10;0.85;;;;;;;;;;5014049;28;20026;-71
2023/12/25 11:50:38;;;;;;;2.25;1.75;;;;;;;;;;5012854;28;20092;-71
2023/12/25 11:53:03;;;;;;;2.83;1.90;;;;;;;;;;5013753;28;20479;-71
2023/12/25 11:55:30;;;;;;;3.10;1.92;;;;;;;;;;5012575;28;20034;-71
2023/12/25 11:57:55;;;;;;;1.17;1.10;;;;;;;;;;5012508;28;20045;-71
2023/12/25 12:00:25;;;;;;;2.47;0.93;;;;;;;;;;5013561;28;20034;-71
2023/12/25 12:02:51;;;;;;;1.50;1.23;;;;;;;;;;5012781;28;20380;-71
2023/12/25 12:05:16;;;;;;;1.90;1.48;;;;;;;;;;5013594;28;20026;-71
2023/12/25 12:07:42;;;;;;;1.80;1.45;;;;;;;;;;5013648;28;20028;-71
2023/12/25 12:10:08;;;;;;;3.70;1.83;;;;;;;;;;5013845;28;20419;-71
2023/12/25 12:12:34;;;;;;;1.60;1.30;;;;;;;;;;5012672;28;20041;-68
2023/12/25 12:15:19;;;;;;;0.73;0.73;;;;;;;;;;5055500;23;20057;-68
2023/12/25 12:17:44;;;;;;;1.83;0.98;;;;;;;;;;4973433;28;20476;-71
2023/12/25 12:20:09;;;;;;;2.47;2.13;;;;;;;;;;4975047;28;20034;-71
2023/12/25 12:22:35;;;;;;;2.72;2.47;;;;;;;;;;4977493;28;20027;-71
2023/12/25 12:25:18;;;;;;;3.67;3.13;;;;;;;;;;5029823;22;20146;-67
2023/12/25 12:27:43;;;;;;;4.93;2.90;;;;;;;;;;5052489;23;20152;-70
2023/12/25 12:30:09;;;;;;;5.25;3.00;;;;;;;;;;5056754;28;20526;-71
2023/12/25 12:32:35;;;;;;;2.97;2.58;;;;;;;;;;5057035;28;20086;-71
2023/12/25 12:35:01;;;;;;;4.22;2.15;;;;;;;;;;5056709;28;20061;-70
2023/12/25 12:37:26;;;;;;;3.08;2.22;;;;;;;;;;5056903;28;20062;-70
2023/12/25 12:39:52;;;;;;;3.80;2.65;;;;;;;;;;5056846;28;20123;-70
2023/12/25 12:42:18;;;;;;;3.80;2.38;;;;;;;;;;5056737;28;20033;-71
2023/12/25 12:44:47;;;;;;;2.72;2.17;;;;;;;;;;5056792;28;20035;-71
2023/12/25 12:47:12;;;;;;;2.35;1.45;;;;;;;;;;5055616;28;20095;-70
2023/12/25 12:49:39;;;;;;;3.20;2.70;;;;;;;;;;5056342;28;20475;-70
2023/12/25 12:52:05;;;;;;;2.45;1.90;;;;;;;;;;5055496;28;20107;-70
2023/12/25 12:54:31;;;;;;;2.90;2.42;;;;;;;;;;5055050;28;20032;-71
2023/12/25 12:56:56;;;;;;;1.92;1.63;;;;;;;;;;5056555;28;20107;-71
2023/12/25 12:59:22;;;;;;;2.92;2.25;;;;;;;;;;5055370;28;20028;-71
2023/12/25 13:01:47;;;;;;;2.85;1.95;;;;;;;;;;5055222;28;20429;-71
2023/12/25 13:04:14;;;;;;;2.28;1.75;;;;;;;;;;5056090;28;20037;-71
2023/12/25 13:06:40;;;;;;;2.92;1.85;;;;;;;;;;5055472;28;20439;-71
2023/12/25 13:09:05;;;;;;;1.52;1.40;;;;;;;;;;5056041;28;20021;-71
2023/12/25 13:11:30;;;;;;;2.40;1.65;;;;;;;;;;5056289;28;20101;-71
2023/12/25 13:13:56;;;;;;;1.63;1.50;;;;;;;;;;5056493;28;20040;-71
2023/12/25 13:16:21;;;;;;;2.70;1.50;;;;;;;;;;5054692;28;20123;-71
2023/12/25 13:18:47;;;;;;;2.97;1.58;;;;;;;;;;5055990;28;20025;-69
2023/12/25 13:21:13;;;;;;;1.95;1.55;;;;;;;;;;5055759;28;20084;-69
2023/12/25 13:23:38;;;;;;;1.88;1.65;;;;;;;;;;5055791;28;20033;-69
2023/12/25 13:26:04;;;;;;;2.63;1.70;;;;;;;;;;5056029;28;20036;-69
2023/12/25 13:28:30;;;;;;;1.67;1.30;;;;;;;;;;5057691;28;20486;-69
2023/12/25 13:30:56;;;;;;;2.17;1.50;;;;;;;;;;5075709;28;20067;-71
2023/12/25 13:33:21;;;;;;;1.30;1.17;;;;;;;;;;5074991;28;20038;-71
2023/12/25 13:35:47;;;;;;;1.77;1.65;;;;;;;;;;5075554;28;20390;-72
2023/12/25 13:38:12;;;;;;;2.53;1.83;;;;;;;;;;5074262;28;20032;-71
2023/12/25 13:40:38;;;;;;;2.47;1.77;;;;;;;;;;5075678;28;20085;-71
2023/12/25 13:43:04;;;;;;;3.15;1.80;;;;;;;;;;5040931;28;20387;-72
2023/12/25 13:45:30;;;;;;;1.60;1.50;;;;;;;;;;5075669;28;20028;-72
2023/12/25 13:47:55;;;;;;;2.05;1.77;;;;;;;;;;5074036;28;20592;-72
2023/12/25 13:50:21;;;;;;;2.05;1.38;;;;;;;;;;5057737;28;20035;-72
2023/12/25 13:52:46;;;;;;;3.83;1.77;;;;;;;;;;5073919;28;20463;-72
2023/12/25 13:55:11;;;;;;;2.92;2.55;;;;;;;;;;5057926;28;20043;-72
2023/12/25 13:57:37;;;;;;;4.78;3.25;;;;;;;;;;5074224;28;20024;-72
2023/12/25 14:00:05;;;;;;;5.40;4.00;;;;;;;;;;5075332;28;20028;-72
2023/12/25 14:02:34;;;;;;;3.53;2.50;;;;;;;;;;5057656;28;20074;-71
2023/12/25 14:04:59;;;;;;;5.68;3.70;;;;;;;;;;5073841;28;20052;-71
2023/12/25 14:07:24;;;;;;;4.97;2.78;;;;;;;;;;5074905;28;20055;-71
2023/12/25 14:09:50;;;;;;;2.35;1.73;;;;;;;;;;5073605;28;20059;-71
2023/12/25 14:12:16;;;;;;;4.72;2.28;;;;;;;;;;5074851;28;20036;-69
2023/12/25 14:14:41;;;;;;;1.75;1.50;;;;;;;;;;5075117;28;20090;-70
2023/12/25 14:17:07;;;;;;;1.65;1.30;;;;;;;;;;5075286;28;20032;-69
2023/12/25 14:19:32;;;;;;;2.03;1.42;;;;;;;;;;5074738;28;20056;-69
2023/12/25 14:21:58;;;;;;;2.60;1.63;;;;;;;;;;5074868;28;20513;-69
2023/12/25 14:24:23;;;;;;;2.05;1.60;;;;;;;;;;5074910;28;20107;-68
2023/12/25 14:26:50;;;;;;;1.52;1.42;;;;;;;;;;5074400;28;20416;-68
2023/12/25 14:29:15;;;;;;;1.95;1.33;;;;;;;;;;5074762;28;20020;-68
2023/12/25 14:31:41;;;;;;;2.00;1.60;;;;;;;;;;5056543;28;20467;-69
2023/12/25 14:34:14;;;;;;;2.65;1.70;;;;;;;;;;5065653;23;20492;-68
2023/12/25 14:36:39;;;;;;;1.80;1.23;;;;;;;;;;5071425;22;20410;-71